Česky Dansk Deutsch English Español Suomi Français Magyar Italiano Nederlands norsk Polski Português svenska Türkçe

 

Het Weer

Leite Lopes / Ribeir (Brazilië)

00:00, 15 augustus 2016 (GMT)

NWNNE
WE
SWSSE
Home            
Leite Lopes / Ribeir Sao Carlos Pirassununga Pocos De Caldas Uberaba Bauru Campinas Aeroporto Uberlandia Guarulhos Civ / Mil Marte Civ / Mil Sao Paulo/Congonhas Aeroporto Sao Jose Dos Campo Guaratingueta Santos Aeroporto Resende Presidente Prudente Barbacena Belo Horizonte Londrina Aeroporto Belo Horizonte Aeroporto Juiz De Fora Rio De Janeiro-Santa Cruz Ab Paranagua

Om een weerknop op uw website of weblog te plaatsen, copieer onderstaande code en plak die in uw pagina. In het eerste vakje staat HTML-code, in het tweede vakje UBB-code.


Add to Google

Details

Generelle sikten:Større enn 10000 m, 10 km, 32800 ft, 6.2 miles
Clouds:CAVOC
Temperaturen:22°C, 72°F
Gefühlte Temperatur:25°C, 77°F
Duggpunkt:11°C, 52°F
Lufttrykket:1015 hPa, 761.3 mmHg, 29.97 inHg, 1.002 atm
Relative fuktigheten:49.7 %
METAR:SBRP 150000Z 00000KT CAVOK 22/11 Q1015

Snelkoppelingen

Actuele weersinformatie van de hele wereld. Voeg locaties toe met het plus (+) symbool. Deze snelkoppelingen kunnen worden toegevoegd aan Google.

Lid van de Technetium groep

website free tracking
StatCounter NetStat W3C Validator

27-10-2020 04:22:16
astro.technetium.be money.technetium.be phote.technetium.be tafeltennistafel.technetium.be www.ligfiets.net